createdAt,value
2019-03-16T00:00:36.728Z,8.03
2019-03-16T00:01:56.265Z,8.20
2019-03-16T00:02:51.104Z,8.62
2019-03-16T00:03:57.149Z,9.11
2019-03-16T00:05:03.413Z,9.48
2019-03-16T00:06:10.434Z,9.83
2019-03-16T00:07:16.275Z,10.11
2019-03-16T00:08:22.955Z,10.35
2019-03-16T00:09:29.752Z,10.39
2019-03-16T00:10:37.082Z,10.11
2019-03-16T00:11:43.321Z,9.70
2019-03-16T00:12:51.895Z,9.29
2019-03-16T00:13:58.833Z,8.86
2019-03-16T00:15:06.745Z,8.45
2019-03-16T00:16:12.553Z,8.09
2019-03-16T00:17:23.183Z,7.89
2019-03-16T00:18:27.961Z,8.10
2019-03-16T00:19:33.822Z,8.52
2019-03-16T00:20:40.535Z,8.93
2019-03-16T00:21:46.733Z,9.41
2019-03-16T00:22:52.935Z,9.74
2019-03-16T00:24:00.005Z,10.04
2019-03-16T00:25:08.819Z,10.36
2019-03-16T00:26:15.743Z,10.45
2019-03-16T00:27:22.403Z,10.19
2019-03-16T00:28:29.215Z,9.72
2019-03-16T00:29:35.674Z,9.25
2019-03-16T00:30:42.672Z,8.82
2019-03-16T00:31:49.114Z,8.38
2019-03-16T00:32:55.201Z,8.16
2019-03-16T00:34:01.382Z,8.28
2019-03-16T00:35:08.377Z,8.60
2019-03-16T00:36:14.495Z,9.00
2019-03-16T00:37:21.106Z,9.35
2019-03-16T00:38:27.295Z,9.69
2019-03-16T00:39:33.114Z,9.98
2019-03-16T00:40:39.086Z,10.28
2019-03-16T00:41:45.785Z,10.47
2019-03-16T00:42:53.374Z,10.55
2019-03-16T00:44:00.188Z,10.28
2019-03-16T00:45:09.336Z,9.84
2019-03-16T00:46:16.424Z,9.39
2019-03-16T00:47:23.411Z,8.94
2019-03-16T00:48:29.741Z,8.49
2019-03-16T00:49:36.014Z,8.17
2019-03-16T00:50:43.785Z,7.86
2019-03-16T00:51:50.745Z,7.62
2019-03-16T00:52:57.993Z,7.76
2019-03-16T00:54:05.544Z,8.16
2019-03-16T00:55:12.124Z,8.60
2019-03-16T00:56:19.115Z,9.06
2019-03-16T00:57:25.225Z,9.43
2019-03-16T00:58:31.824Z,9.79
2019-03-16T00:59:39.125Z,10.01
2019-03-16T01:00:45.345Z,9.91
2019-03-16T01:01:52.695Z,9.56
2019-03-16T01:02:59.905Z,9.18
2019-03-16T01:04:05.916Z,8.77
2019-03-16T01:05:12.582Z,8.44
2019-03-16T01:06:18.615Z,8.11
2019-03-16T01:07:24.605Z,7.83
2019-03-16T01:08:31.307Z,7.57
2019-03-16T01:09:39.175Z,7.51
2019-03-16T01:10:45.684Z,7.83
2019-03-16T01:11:52.385Z,8.31
2019-03-16T01:12:58.976Z,8.89
2019-03-16T01:14:05.247Z,9.38
2019-03-16T01:15:14.275Z,9.79
2019-03-16T01:16:20.654Z,10.14
2019-03-16T01:17:28.445Z,10.33
2019-03-16T01:18:35.413Z,10.15
2019-03-16T01:19:41.285Z,9.79
2019-03-16T01:20:48.256Z,9.41
2019-03-16T01:21:55.782Z,8.94
2019-03-16T01:23:02.229Z,8.55
2019-03-16T01:24:10.524Z,8.17
2019-03-16T01:25:17.666Z,7.85
2019-03-16T01:26:25.027Z,7.65
2019-03-16T01:27:31.896Z,7.90
2019-03-16T01:28:37.826Z,8.35
2019-03-16T01:29:44.486Z,8.80
2019-03-16T01:30:51.581Z,9.28
2019-03-16T01:31:59.169Z,9.65
2019-03-16T01:33:06.016Z,9.91
2019-03-16T01:34:13.216Z,10.07
2019-03-16T01:35:20.256Z,10.25
2019-03-16T01:36:26.730Z,10.42
2019-03-16T01:37:33.416Z,10.45
2019-03-16T01:38:40.041Z,10.10
2019-03-16T01:39:46.506Z,9.66
2019-03-16T01:40:52.456Z,9.17
2019-03-16T01:41:58.986Z,8.66
2019-03-16T01:43:06.104Z,8.28
2019-03-16T01:44:13.018Z,8.28
2019-03-16T01:45:19.337Z,8.51
2019-03-16T01:46:25.704Z,8.86
2019-03-16T01:47:33.931Z,9.17
2019-03-16T01:48:41.154Z,9.46
2019-03-16T01:49:49.612Z,9.67
2019-03-16T01:50:55.447Z,9.87
2019-03-16T01:52:01.822Z,10.02
2019-03-16T01:53:09.087Z,10.18
2019-03-16T01:54:15.696Z,10.26
2019-03-16T01:55:22.378Z,10.36
2019-03-16T01:56:28.895Z,10.45
2019-03-16T01:57:35.035Z,10.59
2019-03-16T01:58:41.618Z,10.71
2019-03-16T01:59:49.214Z,10.74
2019-03-16T02:00:56.114Z,10.76
2019-03-16T02:02:03.304Z,10.81
2019-03-16T02:03:09.876Z,10.84
2019-03-16T02:04:16.936Z,10.84
2019-03-16T02:05:23.735Z,10.83
2019-03-16T02:06:29.756Z,10.80
2019-03-16T02:07:36.537Z,10.87
2019-03-16T02:08:43.324Z,10.83
2019-03-16T02:09:49.363Z,10.81
2019-03-16T02:10:56.556Z,10.79
2019-03-16T02:12:05.056Z,10.76
2019-03-16T02:13:11.215Z,10.73
2019-03-16T02:14:18.251Z,10.71
2019-03-16T02:15:25.166Z,10.66
2019-03-16T02:16:32.397Z,10.62
2019-03-16T02:17:39.595Z,10.63
2019-03-16T02:18:46.483Z,10.60
2019-03-16T02:19:53.645Z,10.63
2019-03-16T02:21:00.868Z,10.63
2019-03-16T02:22:06.737Z,10.64
2019-03-16T02:23:13.898Z,10.60
2019-03-16T02:24:21.376Z,10.63
2019-03-16T02:25:27.475Z,10.60
2019-03-16T02:26:34.393Z,10.57
2019-03-16T02:27:40.990Z,10.52
2019-03-16T02:28:47.847Z,10.55
2019-03-16T02:29:54.906Z,10.56
2019-03-16T02:31:00.946Z,10.56
2019-03-16T02:32:08.489Z,10.56
2019-03-16T02:33:15.658Z,10.57
2019-03-16T02:34:21.805Z,10.57
2019-03-16T02:35:28.607Z,10.60
2019-03-16T02:36:35.833Z,10.62
2019-03-16T02:37:42.258Z,10.62
2019-03-16T02:38:49.207Z,10.60
2019-03-16T02:39:56.653Z,10.53
2019-03-16T02:41:03.327Z,10.50
2019-03-16T02:42:10.468Z,10.49
2019-03-16T02:43:17.255Z,10.46
2019-03-16T02:44:24.413Z,10.42
2019-03-16T02:45:31.417Z,10.37
2019-03-16T02:46:37.707Z,10.45
2019-03-16T02:47:44.851Z,10.45
2019-03-16T02:48:51.537Z,10.42
2019-03-16T02:49:57.445Z,10.39
2019-03-16T02:51:03.565Z,10.40
2019-03-16T02:52:17.485Z,10.39
2019-03-16T02:53:24.133Z,10.29
2019-03-16T02:54:31.886Z,10.28
2019-03-16T02:55:40.058Z,10.25
2019-03-16T02:56:47.063Z,10.26
2019-03-16T02:57:53.895Z,10.29
2019-03-16T02:59:00.436Z,10.37
2019-03-16T03:00:13.908Z,10.39
2019-03-16T03:01:21.152Z,10.46
2019-03-16T03:02:27.376Z,10.43
2019-03-16T03:03:34.323Z,10.43
2019-03-16T03:04:45.518Z,10.40
2019-03-16T03:05:51.025Z,10.37
2019-03-16T03:06:57.426Z,10.33
2019-03-16T03:08:04.119Z,10.31
2019-03-16T03:09:10.654Z,10.29
2019-03-16T03:10:17.773Z,10.33
2019-03-16T03:11:25.069Z,10.29
2019-03-16T03:12:31.795Z,10.33
2019-03-16T03:13:39.304Z,10.33
2019-03-16T03:14:47.851Z,10.31
2019-03-16T03:15:55.098Z,10.33
2019-03-16T03:17:01.828Z,10.35
2019-03-16T03:18:07.963Z,10.39
2019-03-16T03:19:14.804Z,10.42
2019-03-16T03:20:21.721Z,10.40
2019-03-16T03:21:28.257Z,10.33
2019-03-16T03:22:35.489Z,10.32
2019-03-16T03:23:42.296Z,10.31
2019-03-16T03:24:48.010Z,10.33
2019-03-16T03:25:54.386Z,10.33
2019-03-16T03:27:00.836Z,10.32
2019-03-16T03:28:06.702Z,10.29
2019-03-16T03:29:13.152Z,10.31
2019-03-16T03:30:20.574Z,10.37
2019-03-16T03:31:26.534Z,10.39
2019-03-16T03:32:33.261Z,10.35
2019-03-16T03:33:58.528Z,10.35
2019-03-16T03:34:48.847Z,10.36
2019-03-16T03:35:55.404Z,10.35
2019-03-16T03:37:03.113Z,10.33
2019-03-16T03:38:09.501Z,10.37
2019-03-16T03:39:18.708Z,10.46
2019-03-16T03:40:25.153Z,10.43
2019-03-16T03:41:32.205Z,10.40
2019-03-16T03:42:39.297Z,10.40
2019-03-16T03:43:46.382Z,10.36
2019-03-16T03:44:53.183Z,10.32
2019-03-16T03:46:00.350Z,10.28
2019-03-16T03:47:07.125Z,10.19
2019-03-16T03:48:14.583Z,10.14
2019-03-16T03:49:21.092Z,10.18
2019-03-16T03:50:28.034Z,10.19
2019-03-16T03:51:35.315Z,10.24
2019-03-16T03:52:41.554Z,10.22
2019-03-16T03:53:48.548Z,10.31
2019-03-16T03:54:57.319Z,10.31
2019-03-16T03:56:24.164Z,10.31
2019-03-16T03:57:31.940Z,10.26
2019-03-16T03:58:38.331Z,10.24
2019-03-16T03:59:45.446Z,10.19
2019-03-16T04:00:54.956Z,10.19
2019-03-16T04:02:00.890Z,10.22
2019-03-16T04:03:07.612Z,10.21
2019-03-16T04:04:16.115Z,10.18
2019-03-16T04:05:22.902Z,10.17
2019-03-16T04:06:30.529Z,10.15
2019-03-16T04:07:37.429Z,10.18
2019-03-16T04:08:43.694Z,10.22
2019-03-16T04:09:49.842Z,10.15
2019-03-16T04:10:57.020Z,10.14
2019-03-16T04:12:04.504Z,10.10
2019-03-16T04:13:11.056Z,10.07
2019-03-16T04:14:17.425Z,10.07
2019-03-16T04:15:24.383Z,10.10
2019-03-16T04:16:31.283Z,10.02
2019-03-16T04:17:37.752Z,9.96
2019-03-16T04:18:45.335Z,9.94
2019-03-16T04:19:51.994Z,9.91
2019-03-16T04:21:00.480Z,9.98
2019-03-16T04:22:07.281Z,9.97
2019-03-16T04:23:13.783Z,9.94
2019-03-16T04:24:20.778Z,9.90
2019-03-16T04:25:27.787Z,9.91
2019-03-16T04:26:33.655Z,9.91
2019-03-16T04:27:40.886Z,9.91
2019-03-16T04:28:47.404Z,9.90
2019-03-16T04:29:53.771Z,9.89
2019-03-16T04:31:00.720Z,9.89
2019-03-16T04:32:06.794Z,9.90
2019-03-16T04:33:13.642Z,9.90
2019-03-16T04:34:29.306Z,9.90
2019-03-16T04:35:30.034Z,9.87
2019-03-16T04:36:37.066Z,9.89
2019-03-16T04:37:43.857Z,9.90
2019-03-16T04:38:50.333Z,9.90
2019-03-16T04:39:57.154Z,9.86
2019-03-16T04:41:03.567Z,9.87
2019-03-16T04:42:12.271Z,9.86
2019-03-16T04:43:18.907Z,9.84
2019-03-16T04:44:25.007Z,9.89
2019-03-16T04:45:30.875Z,9.89
2019-03-16T04:46:37.731Z,9.87
2019-03-16T04:47:44.577Z,9.93
2019-03-16T04:48:50.627Z,9.90
2019-03-16T04:49:56.877Z,9.90
2019-03-16T04:51:03.807Z,9.86
2019-03-16T04:52:09.728Z,9.80
2019-03-16T04:53:16.375Z,9.83
2019-03-16T04:54:23.745Z,9.86
2019-03-16T04:55:29.728Z,9.89
2019-03-16T04:56:35.874Z,9.84
2019-03-16T04:57:42.327Z,9.89
2019-03-16T04:58:48.360Z,9.89
2019-03-16T04:59:55.269Z,9.93
2019-03-16T05:01:01.809Z,9.97
2019-03-16T05:02:08.778Z,9.96
2019-03-16T05:03:16.698Z,9.96
2019-03-16T05:04:22.658Z,9.90
2019-03-16T05:05:29.578Z,9.91
2019-03-16T05:06:37.262Z,9.93
2019-03-16T05:07:43.758Z,9.94
2019-03-16T05:08:50.559Z,10.01
2019-03-16T05:09:57.544Z,10.02
2019-03-16T05:11:04.061Z,10.04
2019-03-16T05:12:10.772Z,10.08
2019-03-16T05:13:17.953Z,10.08
2019-03-16T05:14:24.094Z,10.08
2019-03-16T05:15:31.524Z,10.14
2019-03-16T05:16:37.941Z,10.17
2019-03-16T05:17:44.052Z,10.12
2019-03-16T05:18:50.641Z,10.10
2019-03-16T05:19:57.421Z,10.10
2019-03-16T05:21:05.047Z,10.11
2019-03-16T05:22:11.980Z,10.11
2019-03-16T05:23:19.047Z,10.05
2019-03-16T05:24:26.124Z,10.01
2019-03-16T05:25:33.465Z,9.94
2019-03-16T05:26:40.224Z,9.93
2019-03-16T05:27:47.434Z,9.91
2019-03-16T05:28:54.451Z,9.94
2019-03-16T05:30:01.234Z,9.96
2019-03-16T05:31:07.215Z,10.02
2019-03-16T05:32:13.995Z,10.05
2019-03-16T05:33:21.083Z,10.11
2019-03-16T05:34:27.163Z,10.15
2019-03-16T05:35:33.806Z,10.18
2019-03-16T05:36:41.661Z,10.21
2019-03-16T05:37:49.248Z,10.19
2019-03-16T05:38:55.617Z,10.28
2019-03-16T05:40:02.761Z,10.26
2019-03-16T05:41:09.273Z,10.29
2019-03-16T05:42:15.573Z,10.26
2019-03-16T05:43:24.115Z,10.29
2019-03-16T05:44:31.494Z,10.29
2019-03-16T05:45:40.125Z,10.29
2019-03-16T05:46:46.992Z,10.28
2019-03-16T05:47:54.332Z,10.25
2019-03-16T05:49:00.803Z,10.26
2019-03-16T05:50:15.360Z,10.28
2019-03-16T05:51:22.675Z,10.26
2019-03-16T05:52:29.852Z,10.28
2019-03-16T05:53:35.795Z,10.32
2019-03-16T05:54:42.705Z,10.37
2019-03-16T05:55:49.583Z,10.42
2019-03-16T05:56:56.113Z,10.46
2019-03-16T05:58:04.122Z,10.50
2019-03-16T05:59:10.842Z,10.49
2019-03-16T06:00:18.525Z,10.52
2019-03-16T06:01:25.045Z,10.57
2019-03-16T06:02:31.366Z,10.56
2019-03-16T06:03:37.963Z,10.56
2019-03-16T06:04:44.542Z,10.53
2019-03-16T06:05:50.823Z,10.49
2019-03-16T06:06:57.042Z,10.43
2019-03-16T06:08:03.963Z,10.36
2019-03-16T06:09:10.243Z,10.31
2019-03-16T06:10:16.595Z,10.28
2019-03-16T06:11:23.364Z,10.28
2019-03-16T06:12:54.183Z,10.28
2019-03-16T06:14:03.609Z,10.25
2019-03-16T06:15:11.375Z,10.24
2019-03-16T06:16:18.396Z,10.28
2019-03-16T06:17:25.573Z,10.28
2019-03-16T06:18:33.516Z,10.31
2019-03-16T06:19:40.433Z,10.29
2019-03-16T06:20:47.293Z,10.22
2019-03-16T06:21:55.476Z,10.21
2019-03-16T06:23:05.166Z,10.17
2019-03-16T06:24:11.932Z,10.19
2019-03-16T06:25:19.887Z,10.24
2019-03-16T06:26:26.544Z,10.24
2019-03-16T06:27:33.846Z,10.21
2019-03-16T06:28:40.114Z,10.24
2019-03-16T06:29:53.756Z,10.25
2019-03-16T06:31:03.310Z,10.31
2019-03-16T06:32:14.937Z,10.31
2019-03-16T06:33:28.828Z,10.33
2019-03-16T06:34:39.977Z,10.33
2019-03-16T06:35:47.960Z,10.37
2019-03-16T06:37:08.603Z,10.42
2019-03-16T06:38:17.303Z,10.42
2019-03-16T06:41:03.696Z,10.42
2019-03-16T06:42:09.817Z,10.42
2019-03-16T06:43:16.220Z,10.43
2019-03-16T06:44:24.550Z,10.55
2019-03-16T06:45:31.477Z,10.55
2019-03-16T06:46:38.087Z,10.59
2019-03-16T06:47:47.174Z,10.59
2019-03-16T06:48:54.699Z,10.60
2019-03-16T06:50:01.608Z,10.63
2019-03-16T06:51:09.157Z,10.64
2019-03-16T06:52:16.689Z,10.64
2019-03-16T06:53:23.203Z,10.70
2019-03-16T06:54:32.032Z,10.77
2019-03-16T06:55:44.877Z,10.80
2019-03-16T06:56:56.567Z,10.80
2019-03-16T06:58:03.895Z,10.77
2019-03-16T06:59:15.396Z,10.73
2019-03-16T07:00:23.066Z,10.71
2019-03-16T07:01:33.258Z,10.77
2019-03-16T07:02:42.337Z,10.84
2019-03-16T07:03:49.193Z,10.77
2019-03-16T07:04:58.168Z,10.76
2019-03-16T07:06:05.925Z,10.73
2019-03-16T07:07:12.457Z,10.76
2019-03-16T07:08:19.064Z,10.83
2019-03-16T07:09:28.948Z,10.77
2019-03-16T07:10:40.699Z,10.76
2019-03-16T07:11:57.605Z,10.76
2019-03-16T07:12:59.677Z,10.73
2019-03-16T07:14:06.494Z,10.77
2019-03-16T07:15:14.932Z,10.81
2019-03-16T07:16:22.649Z,10.84
2019-03-16T07:17:34.156Z,10.87
2019-03-16T07:18:39.938Z,10.87
2019-03-16T07:19:47.875Z,10.91
2019-03-16T07:20:58.418Z,10.97
2019-03-16T07:22:05.424Z,10.94
2019-03-16T07:23:13.998Z,10.87
2019-03-16T07:24:22.390Z,10.49
2019-03-16T07:25:31.273Z,9.97
2019-03-16T07:26:37.316Z,9.41
2019-03-16T07:27:44.919Z,8.97
2019-03-16T07:28:52.183Z,8.99
2019-03-16T07:29:59.589Z,9.12
2019-03-16T07:31:08.626Z,9.37
2019-03-16T07:32:14.845Z,9.57
2019-03-16T07:33:21.270Z,9.76
2019-03-16T07:34:28.247Z,9.97
2019-03-16T07:35:34.896Z,10.02
2019-03-16T07:36:41.386Z,10.10
2019-03-16T07:37:47.699Z,10.18
2019-03-16T07:38:54.158Z,10.25
2019-03-16T07:40:00.419Z,10.33
2019-03-16T07:41:07.648Z,10.40
2019-03-16T07:42:14.096Z,10.47
2019-03-16T07:43:20.137Z,10.52
2019-03-16T07:44:26.785Z,10.55
2019-03-16T07:45:32.967Z,10.59
2019-03-16T07:46:39.425Z,10.64
2019-03-16T07:47:45.905Z,10.73
2019-03-16T07:48:53.089Z,10.76
2019-03-16T07:49:59.317Z,10.74
2019-03-16T07:51:06.356Z,10.74
2019-03-16T07:52:12.339Z,10.73
2019-03-16T07:53:18.965Z,10.79
2019-03-16T07:54:25.457Z,10.94
2019-03-16T07:55:31.839Z,10.90
2019-03-16T07:56:38.522Z,10.49
2019-03-16T07:57:45.177Z,10.00
2019-03-16T07:58:51.467Z,9.49
2019-03-16T07:59:57.873Z,9.00
2019-03-16T08:01:04.034Z,8.72
2019-03-16T08:02:11.007Z,8.90
2019-03-16T08:03:17.366Z,9.31
2019-03-16T08:04:23.464Z,9.66
2019-03-16T08:05:29.927Z,10.01
2019-03-16T08:06:36.965Z,10.33
2019-03-16T08:07:42.977Z,10.59
2019-03-16T08:08:49.974Z,10.79
2019-03-16T08:09:56.578Z,11.01
2019-03-16T08:11:07.477Z,11.16
2019-03-16T08:12:14.908Z,11.32
2019-03-16T08:13:21.295Z,11.52
2019-03-16T08:14:27.407Z,11.54
2019-03-16T08:15:33.840Z,11.23
2019-03-16T08:16:40.895Z,10.74
2019-03-16T08:17:48.815Z,10.19
2019-03-16T08:18:55.444Z,9.69
2019-03-16T08:20:01.412Z,9.25
2019-03-16T08:21:07.550Z,9.00
2019-03-16T08:22:14.508Z,9.15
2019-03-16T08:23:21.264Z,9.52
2019-03-16T08:24:27.235Z,9.96
2019-03-16T08:25:34.766Z,10.31
2019-03-16T08:26:40.988Z,10.67
2019-03-16T08:27:54.227Z,10.99
2019-03-16T08:28:54.708Z,11.23
2019-03-16T08:30:00.755Z,11.29
2019-03-16T08:31:06.936Z,10.95
2019-03-16T08:32:13.608Z,10.49
2019-03-16T08:33:19.663Z,9.98
2019-03-16T08:34:25.558Z,9.50
2019-03-16T08:35:31.906Z,9.06
2019-03-16T08:36:37.873Z,8.77
2019-03-16T08:37:43.993Z,8.99
2019-03-16T08:38:51.136Z,9.41
2019-03-16T08:39:58.306Z,9.84
2019-03-16T08:41:08.812Z,10.24
2019-03-16T08:42:16.355Z,10.49
2019-03-16T08:43:22.659Z,10.73
2019-03-16T08:44:29.489Z,10.88
2019-03-16T08:45:35.928Z,10.67
2019-03-16T08:46:42.669Z,10.26
2019-03-16T08:47:52.295Z,9.79
2019-03-16T08:48:58.915Z,9.31
2019-03-16T08:50:07.978Z,8.89
2019-03-16T08:51:16.148Z,8.59
2019-03-16T08:52:23.537Z,8.76
2019-03-16T08:53:30.108Z,9.14
2019-03-16T08:54:36.935Z,9.55
2019-03-16T08:55:43.070Z,9.91
2019-03-16T08:56:49.218Z,10.21
2019-03-16T08:58:05.530Z,10.47
2019-03-16T08:59:03.717Z,10.70
2019-03-16T09:00:14.217Z,10.60
2019-03-16T09:01:21.067Z,10.21
2019-03-16T09:02:27.229Z,9.80
2019-03-16T09:03:43.010Z,9.37
2019-03-16T09:04:42.490Z,8.94
2019-03-16T09:05:48.576Z,8.59
2019-03-16T09:06:55.070Z,8.39
2019-03-16T09:08:01.717Z,8.65
2019-03-16T09:09:09.116Z,9.07
2019-03-16T09:10:15.496Z,9.46
2019-03-16T09:11:22.038Z,9.80
2019-03-16T09:12:28.819Z,10.19
2019-03-16T09:13:34.957Z,10.43
2019-03-16T09:14:42.108Z,10.70
2019-03-16T09:15:48.376Z,10.79
2019-03-16T09:16:56.463Z,10.57
2019-03-16T09:18:04.427Z,10.25
2019-03-16T09:19:10.777Z,9.91
2019-03-16T09:20:17.917Z,9.57
2019-03-16T09:21:25.476Z,9.31
2019-03-16T09:22:31.837Z,9.04
2019-03-16T09:23:40.873Z,8.93
2019-03-16T09:24:47.712Z,9.25
2019-03-16T09:25:54.316Z,9.77
2019-03-16T09:27:00.256Z,10.22
2019-03-16T09:28:18.123Z,10.62
2019-03-16T09:29:15.619Z,10.92
2019-03-16T09:30:21.689Z,11.11
2019-03-16T09:31:28.057Z,11.29
2019-03-16T09:32:34.230Z,11.42
2019-03-16T09:33:42.377Z,11.54
2019-03-16T09:34:49.274Z,11.66
2019-03-16T09:35:55.280Z,11.71
2019-03-16T09:37:02.157Z,11.46
2019-03-16T09:38:08.270Z,11.04
2019-03-16T09:39:14.530Z,10.63
2019-03-16T09:40:21.098Z,10.19
2019-03-16T09:41:28.537Z,9.82
2019-03-16T09:42:35.952Z,9.46
2019-03-16T09:43:43.237Z,9.29
2019-03-16T09:44:51.595Z,9.49
2019-03-16T09:45:57.839Z,9.86
2019-03-16T09:47:04.597Z,10.31
2019-03-16T09:48:12.438Z,10.81
2019-03-16T09:49:18.761Z,11.30
2019-03-16T09:50:25.957Z,11.76
2019-03-16T09:51:32.691Z,11.92
2019-03-16T09:52:41.042Z,11.80
2019-03-16T09:53:47.965Z,11.46
2019-03-16T09:54:54.251Z,11.08
2019-03-16T09:56:00.971Z,10.67
2019-03-16T09:57:07.150Z,10.26
2019-03-16T09:58:13.230Z,9.89
2019-03-16T09:59:19.596Z,9.57
2019-03-16T10:00:25.878Z,9.28
2019-03-16T10:01:32.753Z,9.20
2019-03-16T10:02:38.871Z,9.55
2019-03-16T10:03:45.610Z,10.11
2019-03-16T10:04:53.718Z,10.70
2019-03-16T10:05:59.999Z,11.16
2019-03-16T10:07:06.410Z,11.59
2019-03-16T10:08:13.111Z,11.89
2019-03-16T10:09:19.422Z,11.87
2019-03-16T10:10:26.191Z,11.56
2019-03-16T10:11:33.074Z,11.14
2019-03-16T10:12:41.437Z,10.67
2019-03-16T10:13:47.640Z,10.21
2019-03-16T10:14:55.511Z,9.91
2019-03-16T10:16:02.420Z,10.02
2019-03-16T10:17:08.932Z,10.33
2019-03-16T10:18:15.919Z,10.70
2019-03-16T10:19:23.231Z,11.05
2019-03-16T10:20:31.202Z,11.43
2019-03-16T10:21:38.512Z,11.78
2019-03-16T10:22:45.658Z,12.08
2019-03-16T10:23:54.218Z,11.91
2019-03-16T10:25:01.452Z,11.53
2019-03-16T10:26:08.171Z,11.07
2019-03-16T10:27:14.150Z,10.67
2019-03-16T10:28:20.265Z,10.35
2019-03-16T10:29:26.251Z,10.10
2019-03-16T10:30:33.939Z,9.90
2019-03-16T10:31:40.831Z,9.67
2019-03-16T10:32:47.058Z,9.46
2019-03-16T10:33:53.559Z,9.27
2019-03-16T10:35:00.477Z,9.17
2019-03-16T10:36:07.238Z,9.56
2019-03-16T10:37:13.332Z,10.07
2019-03-16T10:38:19.339Z,10.62
2019-03-16T10:39:26.831Z,11.19
2019-03-16T10:40:33.218Z,11.77
2019-03-16T10:41:39.370Z,11.91
2019-03-16T10:42:46.298Z,11.71
2019-03-16T10:43:54.079Z,11.29
2019-03-16T10:45:00.919Z,10.84
2019-03-16T10:46:08.529Z,10.46
2019-03-16T10:47:17.121Z,10.08
2019-03-16T10:48:24.078Z,9.76
2019-03-16T10:49:31.547Z,9.52
2019-03-16T10:50:40.240Z,9.31
2019-03-16T10:51:46.521Z,9.14
2019-03-16T10:52:53.873Z,9.12
2019-03-16T10:54:02.461Z,9.48
2019-03-16T10:55:09.567Z,10.00
2019-03-16T10:56:16.058Z,10.47
2019-03-16T10:57:22.729Z,11.01
2019-03-16T10:58:30.092Z,11.46
2019-03-16T10:59:36.972Z,11.89
2019-03-16T11:00:43.174Z,12.16
2019-03-16T11:01:49.487Z,12.05
2019-03-16T11:03:03.574Z,11.74
2019-03-16T11:04:10.821Z,11.21
2019-03-16T11:05:22.659Z,10.70
2019-03-16T11:06:29.662Z,10.15
2019-03-16T11:07:36.039Z,9.91
2019-03-16T11:08:43.593Z,10.01
2019-03-16T11:09:52.223Z,10.32
2019-03-16T11:10:58.272Z,10.67
2019-03-16T11:12:04.947Z,11.05
2019-03-16T11:13:11.993Z,11.38
2019-03-16T11:14:19.019Z,11.74
2019-03-16T11:15:26.523Z,12.05
2019-03-16T11:16:33.180Z,12.18
2019-03-16T11:17:40.241Z,12.04
2019-03-16T11:18:47.681Z,11.69
2019-03-16T11:19:55.602Z,11.38
2019-03-16T11:21:02.641Z,11.05
2019-03-16T11:22:09.312Z,10.73
2019-03-16T11:23:15.660Z,10.40
2019-03-16T11:24:22.556Z,10.12
2019-03-16T11:25:29.754Z,9.84
2019-03-16T11:26:37.693Z,9.62
2019-03-16T11:27:43.921Z,9.48
2019-03-16T11:28:50.073Z,9.34
2019-03-16T11:29:56.742Z,9.28
2019-03-16T11:31:03.220Z,9.48
2019-03-16T11:32:10.455Z,10.00
2019-03-16T11:33:16.612Z,10.53
2019-03-16T11:34:24.100Z,11.12
2019-03-16T11:35:30.286Z,11.45
2019-03-16T11:36:36.481Z,11.41
2019-03-16T11:37:42.904Z,11.15
2019-03-16T11:38:48.841Z,10.84
2019-03-16T11:39:54.995Z,10.53
2019-03-16T11:41:01.994Z,10.33
2019-03-16T11:42:08.463Z,10.12
2019-03-16T11:43:16.800Z,9.91
2019-03-16T11:44:24.210Z,9.80
2019-03-16T11:45:30.848Z,9.67
2019-03-16T11:46:39.595Z,9.59
2019-03-16T11:47:46.841Z,9.45
2019-03-16T11:48:53.163Z,9.49
2019-03-16T11:49:59.981Z,9.87
2019-03-16T11:51:06.362Z,10.29
2019-03-16T11:52:12.582Z,10.76
2019-03-16T11:53:19.594Z,11.25
2019-03-16T11:54:25.942Z,11.71
2019-03-16T11:55:32.701Z,12.01
2019-03-16T11:56:40.417Z,12.16
2019-03-16T11:57:47.307Z,11.98
2019-03-16T11:58:54.007Z,11.67
2019-03-16T12:00:00.727Z,11.27
2019-03-16T12:01:07.764Z,10.95
2019-03-16T12:02:14.333Z,10.60
2019-03-16T12:03:21.856Z,10.32
2019-03-16T12:04:28.154Z,10.10
2019-03-16T12:05:34.334Z,9.89
2019-03-16T12:06:42.674Z,9.69
2019-03-16T12:07:48.745Z,9.56
2019-03-16T12:08:54.834Z,9.48
2019-03-16T12:10:01.094Z,9.38
2019-03-16T12:11:09.534Z,9.31
2019-03-16T12:12:15.764Z,9.27
2019-03-16T12:13:22.769Z,9.38
2019-03-16T12:14:28.821Z,9.84
2019-03-16T12:15:36.435Z,10.46
2019-03-16T12:16:44.003Z,11.11
2019-03-16T12:17:50.723Z,11.71
2019-03-16T12:18:58.122Z,12.21
2019-03-16T12:20:06.721Z,12.39
2019-03-16T12:21:13.354Z,12.25
2019-03-16T12:22:21.022Z,11.94
2019-03-16T12:23:27.695Z,11.54
2019-03-16T12:24:34.583Z,11.21
2019-03-16T12:25:42.255Z,10.92
2019-03-16T12:26:48.415Z,10.64
2019-03-16T12:27:55.874Z,10.37
2019-03-16T12:29:02.144Z,10.17
2019-03-16T12:30:12.134Z,10.00
2019-03-16T12:31:18.835Z,9.86
2019-03-16T12:32:26.294Z,9.74
2019-03-16T12:33:32.904Z,9.60
2019-03-16T12:34:39.183Z,9.52
2019-03-16T12:35:45.683Z,9.39
2019-03-16T12:36:51.699Z,9.52
2019-03-16T12:37:58.475Z,10.02
2019-03-16T12:39:06.443Z,10.64
2019-03-16T12:40:14.901Z,11.19
2019-03-16T12:41:21.823Z,11.57
2019-03-16T12:42:28.503Z,11.57
2019-03-16T12:43:34.706Z,11.35
2019-03-16T12:44:41.665Z,11.12
2019-03-16T12:45:49.562Z,10.83
2019-03-16T12:46:56.963Z,10.62
2019-03-16T12:48:04.055Z,10.42
2019-03-16T12:49:10.435Z,10.25
2019-03-16T12:50:17.422Z,10.14
2019-03-16T12:51:24.423Z,10.04
2019-03-16T12:52:30.777Z,9.96
2019-03-16T12:53:39.662Z,9.90
2019-03-16T12:54:46.422Z,9.83
2019-03-16T12:55:54.462Z,9.76
2019-03-16T12:57:01.886Z,9.73
2019-03-16T12:58:08.976Z,9.67
2019-03-16T12:59:15.743Z,9.66
2019-03-16T13:00:22.355Z,9.63
2019-03-16T13:01:28.583Z,9.60
2019-03-16T13:02:35.482Z,9.56
2019-03-16T13:03:41.786Z,9.52
2019-03-16T13:04:48.438Z,9.52
2019-03-16T13:05:55.468Z,9.48
2019-03-16T13:07:02.077Z,9.46
2019-03-16T13:08:08.865Z,9.43
2019-03-16T13:09:15.177Z,9.38
2019-03-16T13:10:22.486Z,9.41
2019-03-16T13:11:28.994Z,9.39
2019-03-16T13:12:35.204Z,9.39
2019-03-16T13:13:41.849Z,9.43
2019-03-16T13:14:48.526Z,9.41
2019-03-16T13:15:55.564Z,9.41
2019-03-16T13:17:03.505Z,9.42
2019-03-16T13:18:09.704Z,9.46
2019-03-16T13:19:17.022Z,9.49
2019-03-16T13:20:24.485Z,9.50
2019-03-16T13:21:33.024Z,9.56
2019-03-16T13:22:40.006Z,9.60
2019-03-16T13:23:46.996Z,9.63
2019-03-16T13:24:53.523Z,9.66
2019-03-16T13:26:00.616Z,9.66
2019-03-16T13:27:07.850Z,9.66
2019-03-16T13:28:14.285Z,9.69
2019-03-16T13:29:21.953Z,9.70
2019-03-16T13:30:28.364Z,9.70
2019-03-16T13:31:34.423Z,9.73
2019-03-16T13:32:40.886Z,9.76
2019-03-16T13:33:47.559Z,9.76
2019-03-16T13:34:53.858Z,9.80
2019-03-16T13:36:00.428Z,9.79
2019-03-16T13:37:07.217Z,9.76
2019-03-16T13:38:13.984Z,9.77
2019-03-16T13:39:22.604Z,9.76
2019-03-16T13:40:28.689Z,9.74
2019-03-16T13:41:34.885Z,9.74
2019-03-16T13:42:41.877Z,9.74
2019-03-16T13:43:49.224Z,9.74
2019-03-16T13:44:56.084Z,9.79
2019-03-16T13:46:03.278Z,9.84
2019-03-16T13:47:10.286Z,9.84
2019-03-16T13:48:17.886Z,9.86
2019-03-16T13:49:25.797Z,9.80
2019-03-16T13:50:33.212Z,9.74
2019-03-16T13:51:40.429Z,9.66
2019-03-16T13:52:48.590Z,9.59
2019-03-16T13:53:55.300Z,9.53
2019-03-16T13:55:03.285Z,9.48
2019-03-16T13:56:11.200Z,9.45
2019-03-16T13:57:20.151Z,9.45
2019-03-16T13:58:27.245Z,9.43
2019-03-16T13:59:33.738Z,9.43
2019-03-16T14:00:40.344Z,9.43
2019-03-16T14:01:47.466Z,9.45
2019-03-16T14:02:54.044Z,9.41
2019-03-16T14:04:02.985Z,9.38
2019-03-16T14:05:08.784Z,9.34
2019-03-16T14:06:15.605Z,9.29
2019-03-16T14:07:22.925Z,9.22
2019-03-16T14:08:29.385Z,9.20
2019-03-16T14:09:36.124Z,9.11
2019-03-16T14:10:43.404Z,9.04
2019-03-16T14:11:49.946Z,9.01
2019-03-16T14:12:56.488Z,8.96
2019-03-16T14:14:04.167Z,8.94
2019-03-16T14:15:11.958Z,8.92
2019-03-16T14:16:19.078Z,8.87
2019-03-16T14:17:46.128Z,8.86
2019-03-16T14:18:53.968Z,8.86
2019-03-16T14:20:02.125Z,8.83
2019-03-16T14:21:08.140Z,8.82
2019-03-16T14:22:15.305Z,8.80
2019-03-16T14:23:23.038Z,8.80
2019-03-16T14:24:29.878Z,8.84
2019-03-16T14:25:37.132Z,8.86
2019-03-16T14:26:43.283Z,8.92
2019-03-16T14:27:50.381Z,8.96
2019-03-16T14:28:59.203Z,9.00
2019-03-16T14:30:10.287Z,9.01
2019-03-16T14:31:16.800Z,9.06
2019-03-16T14:32:22.946Z,9.11
2019-03-16T14:33:30.101Z,9.20
2019-03-16T14:34:37.874Z,9.25
2019-03-16T14:35:43.943Z,9.34
2019-03-16T14:36:50.449Z,9.39
2019-03-16T14:37:56.733Z,9.43
2019-03-16T14:39:04.586Z,9.45